Darstellungsparameter: Aktuell verwendete Einstellungen:
Skalierung der Graphiken ... ?
xyx+y,   Skalierungsfaktor:      Skalierung: Modus: x, Faktor: 1
Darstellungszeitraum ... ?
Vom - - bis: - -   Zeitraum: 02.03.2021 - 02.03.2021
Min/Max/Avg-Anzeige ... ?
Zeige MMA aktuell
Zeige MMA Monat
Zeige MMA alles
Zeige --A aktuell
Zeige --A Monat
Zeige --A alles
Keine MMA-Anzeige
MMA:
Average (ber die Originaldaten)
MMA-Basis: 02.03.2021 - 02.03.2021
Quicknavigation für Darstellung... ?
Tage:      1T, 2T, 3T, 5T -1T -2T -3T -5T +1T +2T +3T +5T
Wochen: 1W, 2W, 3W -1W -2W -3W +1W +2W +3W
Monate: 1M, 3M, 6M -1M -3M -6M +1M +3M +6M
Jahre:    1J, 3J, 5J, 10J -1J -3J -5J -10J +1J +3J +5J +10J
Nutze für die Darstellung ... ?
Originaldaten oder Mittelwerte auf ...
Stundenbasis Tagesbasis Wochenbasis
Monatsbasis Jahresbasis      Datenbasis: Original-Daten
Darstellen als:
Statistik (Auto) Statistik J:M      Darstellung:

Der gewünschte Datumsbereich war nicht gültig/verfügbar und wurde korrigiert....
Das angegebene Enddatum (22.04.2030 23:59:59) liegt in der Zukunft.
Das angegebene Startdatum (02.04.2030 00:00:00) liegt in der Zukunft.


Zur Graphik,    zurück zur Übersicht aller Sensoren.
 
Tabellarische Datenbersicht: ?
 
Sensor: Nr:Datum:Temp:Abs-Feuchte:Windchill:Wind:
Aussen-T/F 1 02-03-2021 01:00:00 1.8 C 5.1 g/m*3 1.8 C 0 km/h
2 02-03-2021 01:05:00 1.8 C 5.1 g/m*3 1.8 C 0 km/h
3 02-03-2021 01:10:00 1.8 C 5.1 g/m*3 1.8 C 0 km/h
4 02-03-2021 01:15:00 1.8 C 5.1 g/m*3 1.8 C 0 km/h
5 02-03-2021 01:20:00 1.7 C 5.06 g/m*3 1.7 C 0 km/h
6 02-03-2021 01:25:00 1.7 C 5.06 g/m*3 1.7 C 0 km/h
7 02-03-2021 01:30:00 1.7 C 5.12 g/m*3 1.7 C 0 km/h
8 02-03-2021 01:35:00 1.7 C 5.12 g/m*3 1.7 C 0 km/h
9 02-03-2021 01:40:00 1.6 C 5.08 g/m*3 1.6 C 0 km/h
10 02-03-2021 01:45:00 1.6 C 5.08 g/m*3 1.6 C 0 km/h
11 02-03-2021 01:50:00 1.4 C 5.01 g/m*3 1.4 C 0 km/h
12 02-03-2021 01:55:00 1.4 C 5.01 g/m*3 1.4 C 0 km/h
13 02-03-2021 02:00:00 1.3 C 4.98 g/m*3 1.3 C 0 km/h
14 02-03-2021 02:05:00 1.2 C 4.95 g/m*3 1.2 C 0 km/h
15 02-03-2021 02:10:00 1.3 C 4.98 g/m*3 1.3 C 0 km/h
16 02-03-2021 02:15:00 1.3 C 4.98 g/m*3 1.3 C 0 km/h
17 02-03-2021 02:20:00 1.2 C 4.95 g/m*3 1.2 C 0 km/h
18 02-03-2021 02:25:00 1.1 C 4.91 g/m*3 1.1 C 0 km/h
19 02-03-2021 02:30:00 1 C 4.88 g/m*3 1 C 0 km/h
20 02-03-2021 02:35:00 0.9 C 4.85 g/m*3 0.9 C 0 km/h
21 02-03-2021 02:40:00 0.8 C 4.81 g/m*3 0.8 C 0 km/h
22 02-03-2021 02:45:00 0.7 C 4.78 g/m*3 0.7 C 0 km/h
23 02-03-2021 02:50:00 0.6 C 4.75 g/m*3 0.6 C 0 km/h
24 02-03-2021 02:55:00 0.6 C 4.75 g/m*3 0.6 C 0 km/h
25 02-03-2021 03:00:00 0.6 C 4.75 g/m*3 0.6 C 0 km/h
Sensor: Nr:Datum:Temp:Abs-Feuchte:Windchill:Wind:
Aussen-T/F 26 02-03-2021 03:05:00 0.6 C 4.75 g/m*3 0.6 C 0 km/h
27 02-03-2021 03:10:00 0.4 C 4.68 g/m*3 0.4 C 0 km/h
28 02-03-2021 03:15:00 0.4 C 4.68 g/m*3 0.4 C 0 km/h
29 02-03-2021 03:20:00 0.3 C 4.65 g/m*3 0.3 C 0 km/h
30 02-03-2021 03:25:00 0.3 C 4.65 g/m*3 0.3 C 0 km/h
31 02-03-2021 03:30:00 0.3 C 4.65 g/m*3 0.3 C 0 km/h
32 02-03-2021 03:35:00 0.2 C 4.62 g/m*3 0.2 C 0 km/h
33 02-03-2021 03:40:00 0.2 C 4.62 g/m*3 0.2 C 0 km/h
34 02-03-2021 03:45:00 0.2 C 4.62 g/m*3 0.2 C 0 km/h
35 02-03-2021 03:50:00 0.2 C 4.67 g/m*3 0.2 C 0 km/h
36 02-03-2021 03:55:00 0.2 C 4.62 g/m*3 0.2 C 0 km/h
37 02-03-2021 04:00:00 0.2 C 4.62 g/m*3 0.2 C 0 km/h
38 02-03-2021 04:05:00 0.1 C 4.63 g/m*3 0.1 C 0 km/h
39 02-03-2021 04:10:00 0.1 C 4.63 g/m*3 0.1 C 0 km/h
40 02-03-2021 04:15:00 0.1 C 4.63 g/m*3 0.1 C 0 km/h
41 02-03-2021 04:20:00 0.1 C 4.63 g/m*3 0.1 C 0 km/h
42 02-03-2021 04:25:00 0.1 C 4.63 g/m*3 0.1 C 0 km/h
43 02-03-2021 04:30:00 0.1 C 4.63 g/m*3 0.1 C 0 km/h
44 02-03-2021 04:35:00 0.1 C 4.63 g/m*3 0.1 C 0 km/h
45 02-03-2021 04:40:00 -0.1 C 4.57 g/m*3 -0.1 C 0 km/h
46 02-03-2021 04:45:00 -0.1 C 4.57 g/m*3 -0.1 C 0 km/h
47 02-03-2021 04:50:00 -0.2 C 4.54 g/m*3 -0.2 C 0 km/h
48 02-03-2021 04:55:00 -0.2 C 4.54 g/m*3 -0.2 C 0 km/h
49 02-03-2021 05:00:00 -0.3 C 4.51 g/m*3 -0.3 C 0 km/h
50 02-03-2021 05:05:00 -0.3 C 4.51 g/m*3 -0.3 C 0 km/h
Sensor: Nr:Datum:Temp:Abs-Feuchte:Windchill:Wind:
Aussen-T/F 51 02-03-2021 05:10:00 -0.3 C 4.51 g/m*3 -0.3 C 0 km/h
52 02-03-2021 05:15:00 -0.3 C 4.51 g/m*3 -0.3 C 0 km/h
53 02-03-2021 05:20:00 -0.3 C 4.51 g/m*3 -0.3 C 0 km/h
54 02-03-2021 05:25:00 -0.3 C 4.51 g/m*3 -0.3 C 0 km/h
55 02-03-2021 05:30:00 -0.3 C 4.51 g/m*3 -0.3 C 0 km/h
56 02-03-2021 05:35:00 -0.3 C 4.51 g/m*3 -0.3 C 0 km/h
57 02-03-2021 05:40:00 -0.3 C 4.51 g/m*3 -0.3 C 0 km/h
58 02-03-2021 05:45:00 -0.4 C 4.48 g/m*3 -0.4 C 0 km/h
59 02-03-2021 05:50:00 -0.4 C 4.48 g/m*3 -0.4 C 0 km/h
60 02-03-2021 05:55:00 -0.4 C 4.48 g/m*3 -0.4 C 0 km/h
61 02-03-2021 06:00:00 -0.4 C 4.48 g/m*3 -0.4 C 0 km/h
62 02-03-2021 06:05:00 -0.4 C 4.48 g/m*3 -0.4 C 0 km/h
63 02-03-2021 06:10:00 -0.6 C 4.42 g/m*3 -0.6 C 0 km/h
64 02-03-2021 06:15:00 -0.6 C 4.42 g/m*3 -0.6 C 0 km/h
65 02-03-2021 06:20:00 -0.5 C 4.45 g/m*3 -0.5 C 0 km/h
66 02-03-2021 06:25:00 -0.4 C 4.48 g/m*3 -0.4 C 0 km/h
67 02-03-2021 06:30:00 -0.4 C 4.48 g/m*3 -0.4 C 0 km/h
68 02-03-2021 06:35:00 -0.4 C 4.48 g/m*3 -0.4 C 0 km/h
69 02-03-2021 06:40:00 -0.4 C 4.48 g/m*3 -0.4 C 0 km/h
70 02-03-2021 06:45:00 -0.4 C 4.48 g/m*3 -0.4 C 0 km/h
71 02-03-2021 06:50:00 -0.5 C 4.45 g/m*3 -0.5 C 0 km/h
72 02-03-2021 06:55:00 -0.5 C 4.45 g/m*3 -0.5 C 0 km/h
73 02-03-2021 07:00:00 -0.4 C 4.48 g/m*3 -0.4 C 0 km/h
74 02-03-2021 07:05:00 -0.4 C 4.52 g/m*3 -0.4 C 0 km/h
75 02-03-2021 07:10:00 -0.3 C 4.56 g/m*3 -0.3 C 0 km/h
Sensor: Nr:Datum:Temp:Abs-Feuchte:Windchill:Wind:
Aussen-T/F 76 02-03-2021 07:15:00 -0.4 C 4.52 g/m*3 -0.4 C 0 km/h
77 02-03-2021 07:20:00 -0.4 C 4.48 g/m*3 -0.4 C 0 km/h
78 02-03-2021 07:25:00 -0.6 C 4.42 g/m*3 -0.6 C 0 km/h
79 02-03-2021 07:30:00 -0.7 C 4.39 g/m*3 -0.7 C 0 km/h
80 02-03-2021 07:35:00 -0.7 C 4.39 g/m*3 -0.7 C 0 km/h
81 02-03-2021 07:40:00 -0.7 C 4.39 g/m*3 -0.7 C 0 km/h
82 02-03-2021 07:45:00 -0.8 C 4.35 g/m*3 -0.8 C 0 km/h
83 02-03-2021 07:50:00 -0.8 C 4.35 g/m*3 -0.8 C 0 km/h
84 02-03-2021 07:55:00 -0.8 C 4.35 g/m*3 -0.8 C 0 km/h
85 02-03-2021 08:00:00 -0.9 C 4.32 g/m*3 -0.9 C 0 km/h
86 02-03-2021 08:05:00 -0.9 C 4.32 g/m*3 -0.9 C 0 km/h
87 02-03-2021 08:10:00 -1 C 4.29 g/m*3 -1 C 0 km/h
88 02-03-2021 08:15:00 -0.9 C 4.32 g/m*3 -0.9 C 0 km/h
89 02-03-2021 08:20:00 -0.9 C 4.32 g/m*3 -0.9 C 0 km/h
90 02-03-2021 08:25:00 -0.8 C 4.35 g/m*3 -0.8 C 0 km/h
91 02-03-2021 08:30:00 -0.8 C 4.35 g/m*3 -0.8 C 0 km/h

Legende:
   Min
   Max


Maximal/Minimal-Werte vom 02.03.2021 - 02.03.2021

Sensor Min Max Avg
Temp
(Aussen-T/F)
-1 °C
02-03-2021  08:10:00
1.8 °C
02-03-2021  01:00:00
0.15 °C
Abs-Feuchte
(Aussen-T/F)
4.29 g/m*3
02-03-2021  08:10:00
5.12 g/m*3
02-03-2021  01:30:00
4.58 g/m*3
Windchill
(Aussen-T/F)
-1 C
02-03-2021  08:10:00
1.8 C
02-03-2021  01:00:00
0.15 C

Die Daten stammen von einer Davis Vantage Pro 2 Wetter-Station und werden unter Linux mit der Software wview2wettercgi und aufbereitet. Alle Angaben erfolgen ohne Gewähr für ihre Vollständigkeit oder Richtigkeit.
Kontakt: Rainer Krienke krienke@uni-koblenz.de . Meine Webseiten an der Uni Koblenz oder privat.
Version: $Revision: 0.78 $